Time,TemperatureF,DewpointF,PressureIn,WindDirection,WindDirectionDegrees,WindSpeedMPH,WindSpeedGustMPH,Humidity,HourlyPrecipIn,Conditions,Clouds,dailyrainin,SoftwareType,DateUTC
2013-04-28 00:14:00,70.1,66.0,29.97,SSE,154,0.0,-999.0,86,-99.99,,,0.00,weatherlink.com 1.10,2013-04-28 05:14:00,
2013-04-28 00:29:00,69.9,66.0,29.96,SSE,155,0.0,-999.0,87,-99.99,,,0.00,weatherlink.com 1.10,2013-04-28 05:29:00,
2013-04-28 00:44:00,69.9,66.0,29.96,SSE,155,0.0,-999.0,87,-99.99,,,0.00,weatherlink.com 1.10,2013-04-28 05:44:00,
2013-04-28 00:59:00,69.8,66.0,29.96,SSE,164,1.0,-999.0,88,-99.99,,,0.00,weatherlink.com 1.10,2013-04-28 05:59:00,
2013-04-28 01:14:00,69.6,66.0,29.94,SSE,160,3.0,-999.0,88,-99.99,,,0.00,weatherlink.com 1.10,2013-04-28 06:14:00,
2013-04-28 01:29:00,69.4,66.0,29.93,SSW,196,0.0,-999.0,89,-99.99,,,0.00,weatherlink.com 1.10,2013-04-28 06:29:00,
2013-04-28 01:44:00,69.3,66.0,29.94,SSW,198,0.0,-999.0,89,-99.99,,,0.00,weatherlink.com 1.10,2013-04-28 06:44:00,
2013-04-28 01:59:00,69.3,66.0,29.95,SSW,198,0.0,-999.0,89,-99.99,,,0.00,weatherlink.com 1.10,2013-04-28 06:59:00,
2013-04-28 02:14:00,69.3,66.0,29.95,SSW,198,0.0,-999.0,90,-99.99,,,0.00,weatherlink.com 1.10,2013-04-28 07:14:00,
2013-04-28 02:29:00,69.3,66.0,29.95,SSW,198,0.0,-999.0,90,-99.99,,,0.00,weatherlink.com 1.10,2013-04-28 07:29:00,
2013-04-28 02:44:00,69.3,66.0,29.95,SSW,198,0.0,-999.0,90,-99.99,,,0.00,weatherlink.com 1.10,2013-04-28 07:44:00,
2013-04-28 02:59:00,69.3,66.0,29.95,SSW,198,0.0,-999.0,90,-99.99,,,0.00,weatherlink.com 1.10,2013-04-28 07:59:00,
2013-04-28 03:14:00,69.1,66.0,29.95,SSW,198,0.0,-999.0,90,-99.99,,,0.00,weatherlink.com 1.10,2013-04-28 08:14:00,
2013-04-28 03:29:00,68.9,66.0,29.94,SSW,198,0.0,-999.0,90,-99.99,,,0.00,weatherlink.com 1.10,2013-04-28 08:29:00,
2013-04-28 03:44:00,68.8,66.0,29.93,WSW,257,0.0,-999.0,91,-99.99,,,0.00,weatherlink.com 1.10,2013-04-28 08:44:00,
2013-04-28 03:59:00,68.6,66.0,29.93,WSW,257,0.0,-999.0,91,-99.99,,,0.00,weatherlink.com 1.10,2013-04-28 08:59:00,
2013-04-28 04:14:00,68.3,65.0,29.93,WSW,257,0.0,-999.0,90,-99.99,,,0.00,weatherlink.com 1.10,2013-04-28 09:14:00,
2013-04-28 04:29:00,67.9,65.0,29.93,WSW,257,0.0,-999.0,90,-99.99,,,0.00,weatherlink.com 1.10,2013-04-28 09:29:00,
2013-04-28 04:44:00,67.6,65.0,29.92,WSW,257,0.0,-999.0,90,-99.99,,,0.00,weatherlink.com 1.10,2013-04-28 09:44:00,
2013-04-28 04:59:00,67.6,65.0,29.93,WSW,257,0.0,-999.0,91,-99.99,,,0.00,weatherlink.com 1.10,2013-04-28 09:59:00,
2013-04-28 05:14:00,67.4,65.0,29.93,WSW,257,0.0,-999.0,91,-99.99,,,0.00,weatherlink.com 1.10,2013-04-28 10:14:00,
2013-04-28 05:29:00,67.6,65.0,29.93,WSW,257,0.0,-999.0,91,-99.99,,,0.00,weatherlink.com 1.10,2013-04-28 10:29:00,
2013-04-28 05:44:00,67.6,65.0,29.92,WSW,257,0.0,-999.0,91,-99.99,,,0.00,weatherlink.com 1.10,2013-04-28 10:44:00,
2013-04-28 05:59:00,67.4,65.0,29.93,WSW,257,0.0,-999.0,92,-99.99,,,0.00,weatherlink.com 1.10,2013-04-28 10:59:00,
2013-04-28 06:14:00,67.4,65.0,29.93,WSW,257,0.0,-999.0,92,-99.99,,,0.00,weatherlink.com 1.10,2013-04-28 11:14:00,
2013-04-28 06:29:00,67.3,65.0,29.94,WSW,257,0.0,-999.0,92,-99.99,,,0.00,weatherlink.com 1.10,2013-04-28 11:29:00,
2013-04-28 06:44:00,67.3,65.0,29.95,WSW,257,0.0,-999.0,92,-99.99,,,0.00,weatherlink.com 1.10,2013-04-28 11:44:00,
2013-04-28 06:59:00,67.1,65.0,29.95,WSW,257,0.0,-999.0,92,-99.99,,,0.00,weatherlink.com 1.10,2013-04-28 11:59:00,
2013-04-28 07:14:00,67.1,65.0,29.96,WSW,246,0.0,-999.0,92,-99.99,,,0.00,weatherlink.com 1.10,2013-04-28 12:14:00,
2013-04-28 07:29:00,67.1,65.0,29.97,WSW,246,0.0,-999.0,92,-99.99,,,0.00,weatherlink.com 1.10,2013-04-28 12:29:00,
2013-04-28 07:44:00,67.4,65.0,29.97,SSW,212,0.0,-999.0,93,-99.99,,,0.00,weatherlink.com 1.10,2013-04-28 12:44:00,
2013-04-28 07:59:00,67.6,66.0,29.97,SSW,212,0.0,-999.0,93,-99.99,,,0.00,weatherlink.com 1.10,2013-04-28 12:59:00,
2013-04-28 08:14:00,67.8,66.0,29.98,SSW,205,2.0,-999.0,93,-99.99,,,0.00,weatherlink.com 1.10,2013-04-28 13:14:00,
2013-04-28 08:29:00,67.8,66.0,29.98,SSE,168,5.0,-999.0,93,-99.99,,,0.00,weatherlink.com 1.10,2013-04-28 13:29:00,
2013-04-28 08:44:00,67.9,66.0,29.98,SW,216,0.0,-999.0,93,-99.99,,,0.00,weatherlink.com 1.10,2013-04-28 13:44:00,
2013-04-28 08:59:00,68.1,66.0,29.97,West,271,0.0,-999.0,93,-99.99,,,0.00,weatherlink.com 1.10,2013-04-28 13:59:00,
2013-04-28 09:14:00,68.8,66.0,29.97,WSW,254,0.0,-999.0,92,-99.99,,,0.00,weatherlink.com 1.10,2013-04-28 14:14:00,
2013-04-28 09:29:00,68.9,66.0,29.97,WNW,296,2.0,-999.0,91,-99.99,,,0.00,weatherlink.com 1.10,2013-04-28 14:29:00,
2013-04-28 09:44:00,68.9,66.0,29.97,West,272,0.0,-999.0,90,-99.99,,,0.00,weatherlink.com 1.10,2013-04-28 14:44:00,
2013-04-28 09:59:00,69.4,65.0,29.97,NNE,13,1.0,-999.0,87,-99.99,,,0.00,weatherlink.com 1.10,2013-04-28 14:59:00,
2013-04-28 10:14:00,69.6,65.0,29.97,WNW,287,1.0,-999.0,85,-99.99,,,0.00,weatherlink.com 1.10,2013-04-28 15:14:00,
2013-04-28 10:29:00,69.6,65.0,29.97,West,271,0.0,-999.0,84,-99.99,,,0.00,weatherlink.com 1.10,2013-04-28 15:29:00,
2013-04-28 10:44:00,69.8,65.0,29.98,West,271,0.0,-999.0,85,-99.99,,,0.02,weatherlink.com 1.10,2013-04-28 15:44:00,
2013-04-28 10:59:00,69.3,66.0,29.97,West,271,0.0,-999.0,88,-99.99,,,0.02,weatherlink.com 1.10,2013-04-28 15:59:00,
2013-04-28 11:14:00,69.4,66.0,29.97,West,271,0.0,-999.0,89,-99.99,,,0.02,weatherlink.com 1.10,2013-04-28 16:14:00,
2013-04-28 11:29:00,69.4,66.0,29.97,West,271,2.0,-999.0,89,-99.99,,,0.02,weatherlink.com 1.10,2013-04-28 16:29:00,
2013-04-28 11:44:00,69.4,66.0,29.95,West,271,0.0,-999.0,88,-99.99,,,0.02,weatherlink.com 1.10,2013-04-28 16:44:00,
2013-04-28 11:59:00,70.8,67.0,29.94,West,271,0.0,-999.0,87,-99.99,,,0.02,weatherlink.com 1.10,2013-04-28 16:59:00,
2013-04-28 12:14:00,70.9,67.0,29.94,WNW,299,0.0,-999.0,86,-99.99,,,0.02,weatherlink.com 1.10,2013-04-28 17:14:00,
2013-04-28 12:29:00,71.1,66.0,29.93,WNW,299,1.0,-999.0,85,-99.99,,,0.02,weatherlink.com 1.10,2013-04-28 17:29:00,
2013-04-28 12:44:00,71.8,66.0,29.93,North,0,0.0,-999.0,83,-99.99,,,0.02,weatherlink.com 1.10,2013-04-28 17:44:00,
2013-04-28 12:59:00,73.2,67.0,29.92,NNE,21,1.0,-999.0,80,-99.99,,,0.02,weatherlink.com 1.10,2013-04-28 17:59:00,
2013-04-28 13:14:00,74.4,67.0,29.91,NW,311,1.0,-999.0,77,-99.99,,,0.02,weatherlink.com 1.10,2013-04-28 18:14:00,
2013-04-28 13:29:00,77.2,69.0,29.90,NNE,16,6.0,-999.0,75,-99.99,,,0.02,weatherlink.com 1.10,2013-04-28 18:29:00,
2013-04-28 13:44:00,76.5,65.0,29.89,North,350,0.0,-999.0,68,-99.99,,,0.02,weatherlink.com 1.10,2013-04-28 18:44:00,
2013-04-28 13:59:00,76.3,65.0,29.90,North,6,5.0,-999.0,69,-99.99,,,0.02,weatherlink.com 1.10,2013-04-28 18:59:00,
2013-04-28 14:14:00,77.2,65.0,29.89,North,7,1.0,-999.0,67,-99.99,,,0.02,weatherlink.com 1.10,2013-04-28 19:14:00,
2013-04-28 14:29:00,76.0,64.0,29.89,NNW,342,2.0,-999.0,67,-99.99,,,0.02,weatherlink.com 1.10,2013-04-28 19:29:00,
2013-04-28 14:44:00,75.8,64.0,29.89,WNW,302,0.0,-999.0,68,-99.99,,,0.02,weatherlink.com 1.10,2013-04-28 19:44:00,
2013-04-28 14:59:00,76.1,63.0,29.90,NW,308,0.0,-999.0,65,-99.99,,,0.02,weatherlink.com 1.10,2013-04-28 19:59:00,
2013-04-28 15:14:00,77.2,64.0,29.90,SSE,155,1.0,-999.0,64,-99.99,,,0.02,weatherlink.com 1.10,2013-04-28 20:14:00,
2013-04-28 15:29:00,78.3,65.0,29.89,ESE,104,0.0,-999.0,63,-99.99,,,0.02,weatherlink.com 1.10,2013-04-28 20:29:00,
2013-04-28 15:44:00,79.0,64.0,29.88,SSE,157,0.0,-999.0,61,-99.99,,,0.02,weatherlink.com 1.10,2013-04-28 20:44:00,
2013-04-28 15:59:00,79.6,63.0,29.87,South,185,0.0,-999.0,57,-99.99,,,0.02,weatherlink.com 1.10,2013-04-28 20:59:00,
2013-04-28 16:14:00,79.9,65.0,29.86,SSW,206,1.0,-999.0,61,-99.99,,,0.02,weatherlink.com 1.10,2013-04-28 21:14:00,
2013-04-28 16:29:00,78.8,68.0,29.85,South,178,2.0,-999.0,70,-99.99,,,0.02,weatherlink.com 1.10,2013-04-28 21:29:00,
2013-04-28 16:44:00,77.7,68.0,29.86,SSW,195,2.0,-999.0,72,-99.99,,,0.02,weatherlink.com 1.10,2013-04-28 21:44:00,
2013-04-28 16:59:00,77.2,68.0,29.86,South,174,3.0,-999.0,73,-99.99,,,0.02,weatherlink.com 1.10,2013-04-28 21:59:00,
2013-04-28 17:14:00,75.6,66.0,29.86,SSW,192,2.0,-999.0,73,-99.99,,,0.02,weatherlink.com 1.10,2013-04-28 22:14:00,
2013-04-28 17:29:00,76.0,68.0,29.87,SSE,167,0.0,-999.0,76,-99.99,,,0.02,weatherlink.com 1.10,2013-04-28 22:29:00,
2013-04-28 17:44:00,74.2,67.0,29.87,SSE,157,2.0,-999.0,77,-99.99,,,0.02,weatherlink.com 1.10,2013-04-28 22:44:00,
2013-04-28 17:59:00,74.4,66.0,29.87,SSE,165,1.0,-999.0,76,-99.99,,,0.02,weatherlink.com 1.10,2013-04-28 22:59:00,
2013-04-28 18:14:00,74.9,67.0,29.86,South,179,0.0,-999.0,75,-99.99,,,0.02,weatherlink.com 1.10,2013-04-28 23:14:00,
2013-04-28 18:29:00,74.9,66.0,29.86,South,172,4.0,-999.0,73,-99.99,,,0.02,weatherlink.com 1.10,2013-04-28 23:29:00,
2013-04-28 18:44:00,74.4,66.0,29.86,SSW,196,2.0,-999.0,74,-99.99,,,0.02,weatherlink.com 1.10,2013-04-28 23:44:00,
2013-04-28 18:59:00,74.2,65.0,29.86,South,169,0.0,-999.0,73,-99.99,,,0.02,weatherlink.com 1.10,2013-04-28 23:59:00,
2013-04-28 19:14:00,74.2,66.0,29.86,SSE,158,2.0,-999.0,75,-99.99,,,0.02,weatherlink.com 1.10,2013-04-29 00:14:00,
2013-04-28 19:29:00,73.7,66.0,29.87,SSE,158,0.0,-999.0,76,-99.99,,,0.02,weatherlink.com 1.10,2013-04-29 00:29:00,
2013-04-28 19:44:00,73.2,66.0,29.86,SSE,157,0.0,-999.0,77,-99.99,,,0.02,weatherlink.com 1.10,2013-04-29 00:44:00,
2013-04-28 19:59:00,72.5,65.0,29.87,SSE,157,0.0,-999.0,76,-99.99,,,0.02,weatherlink.com 1.10,2013-04-29 00:59:00,
2013-04-28 20:14:00,71.8,64.0,29.88,SSE,157,0.0,-999.0,77,-99.99,,,0.02,weatherlink.com 1.10,2013-04-29 01:14:00,
2013-04-28 20:29:00,70.9,64.0,29.88,SSE,157,0.0,-999.0,78,-99.99,,,0.02,weatherlink.com 1.10,2013-04-29 01:29:00,
2013-04-28 20:44:00,70.1,63.0,29.89,SSE,157,0.0,-999.0,78,-99.99,,,0.02,weatherlink.com 1.10,2013-04-29 01:44:00,
2013-04-28 20:59:00,69.3,63.0,29.89,SSE,157,0.0,-999.0,80,-99.99,,,0.02,weatherlink.com 1.10,2013-04-29 01:59:00,
2013-04-28 21:14:00,68.4,62.0,29.90,SSE,157,0.0,-999.0,81,-99.99,,,0.02,weatherlink.com 1.10,2013-04-29 02:14:00,
2013-04-28 21:29:00,67.8,62.0,29.90,SSE,157,0.0,-999.0,82,-99.99,,,0.02,weatherlink.com 1.10,2013-04-29 02:29:00,
2013-04-28 21:44:00,67.4,62.0,29.91,SSE,157,0.0,-999.0,84,-99.99,,,0.02,weatherlink.com 1.10,2013-04-29 02:44:00,
2013-04-28 21:59:00,66.8,62.0,29.91,SSE,157,0.0,-999.0,84,-99.99,,,0.02,weatherlink.com 1.10,2013-04-29 02:59:00,
2013-04-28 22:14:00,66.3,61.0,29.90,SSE,157,0.0,-999.0,84,-99.99,,,0.02,weatherlink.com 1.10,2013-04-29 03:14:00,
2013-04-28 22:29:00,65.8,61.0,29.90,SSE,157,0.0,-999.0,85,-99.99,,,0.02,weatherlink.com 1.10,2013-04-29 03:29:00,
2013-04-28 22:45:00,65.5,61.0,29.90,SSE,157,0.0,-999.0,86,-99.99,,,0.02,weatherlink.com 1.10,2013-04-29 03:45:00,
2013-04-28 22:59:00,65.0,61.0,29.90,SSE,157,0.0,-999.0,86,-99.99,,,0.02,weatherlink.com 1.10,2013-04-29 03:59:00,
2013-04-28 23:14:00,64.5,60.0,29.91,SSE,157,0.0,-999.0,86,-99.99,,,0.02,weatherlink.com 1.10,2013-04-29 04:14:00,
2013-04-28 23:29:00,64.2,60.0,29.91,SSE,157,0.0,-999.0,86,-99.99,,,0.02,weatherlink.com 1.10,2013-04-29 04:29:00,
2013-04-28 23:44:00,63.9,60.0,29.91,SSE,157,0.0,-999.0,87,-99.99,,,0.02,weatherlink.com 1.10,2013-04-29 04:44:00,
2013-04-28 23:59:00,63.4,60.0,29.91,SSE,157,0.0,-999.0,87,-99.99,,,0.02,weatherlink.com 1.10,2013-04-29 04:59:00,